Time;durP1;ratioP1;P1;durP2;ratioP2;P2;SDS_P1;SDS_P2;PMS_P1;PMS_P2;Temp;Humidity;BMP_temperature;BMP_pressure;BME280_temperature;BME280_humidity;BME280_pressure;Samples;Min_cycle;Max_cycle;Signal;HPM_P1;HPM_P2
2022/07/02 00:00:35;;;;;;;2.10;1.80;;;;;24.50;101117.00;;;;2077735;28;21065;-49
2022/07/02 00:01:36;;;;;;;2.63;1.80;;;;;24.40;101119.00;;;;2077340;28;21034;-49
2022/07/02 00:02:37;;;;;;;2.50;1.57;;;;;24.40;101121.00;;;;2077008;28;20221;-50
2022/07/02 00:03:37;;;;;;;2.27;1.90;;;;;24.40;101140.00;;;;2069112;28;20981;-49
2022/07/02 00:04:38;;;;;;;1.97;1.47;;;;;24.40;101122.00;;;;2077160;28;20303;-49
2022/07/02 00:05:50;;;;;;;1.80;1.60;;;;;24.40;101107.00;;;;2069349;28;20257;-50
2022/07/02 00:06:50;;;;;;;3.30;1.98;;;;;24.40;101118.00;;;;2064240;28;20473;-49
2022/07/02 00:07:51;;;;;;;3.47;1.97;;;;;24.40;101117.00;;;;2067984;28;20309;-49
2022/07/02 00:08:51;;;;;;;2.17;1.80;;;;;24.40;101123.00;;;;2077600;28;20252;-50
2022/07/02 00:09:55;;;;;;;2.47;1.87;;;;;24.40;101113.00;;;;2075600;28;20271;-50
2022/07/02 00:10:56;;;;;;;2.00;1.80;;;;;24.40;101104.00;;;;2077681;28;20221;-50
2022/07/02 00:11:58;;;;;;;2.80;1.80;;;;;24.40;101118.00;;;;2078390;28;20236;-50
2022/07/02 00:12:58;;;;;;;2.60;1.98;;;;;24.40;101109.00;;;;2077908;28;20217;-49
2022/07/02 00:13:58;;;;;;;1.83;1.63;;;;;24.40;101118.00;;;;2078443;28;20225;-50
2022/07/02 00:14:59;;;;;;;2.20;1.77;;;;;24.40;101122.00;;;;2077679;28;20355;-50
2022/07/02 00:15:59;;;;;;;2.63;2.03;;;;;24.40;101118.00;;;;2071746;28;20264;-49
2022/07/02 00:17:00;;;;;;;2.97;1.87;;;;;24.40;101114.00;;;;2074499;28;20530;-49
2022/07/02 00:18:00;;;;;;;2.70;1.57;;;;;24.40;101114.00;;;;2076433;28;20219;-50
2022/07/02 00:19:01;;;;;;;2.90;1.80;;;;;24.40;101108.00;;;;2077897;28;20217;-49
2022/07/02 00:20:01;;;;;;;2.17;1.97;;;;;24.40;101109.00;;;;2078014;28;20260;-50
2022/07/02 00:21:02;;;;;;;1.83;1.70;;;;;24.40;101110.00;;;;2078709;28;20233;-49
2022/07/02 00:22:02;;;;;;;2.77;2.30;;;;;24.40;101110.00;;;;2078581;28;20300;-49
2022/07/02 00:23:03;;;;;;;3.43;1.90;;;;;24.40;101108.00;;;;2078286;28;20479;-49
2022/07/02 00:24:03;;;;;;;2.90;1.63;;;;;24.40;101106.00;;;;2078428;28;20297;-49
2022/07/02 00:25:04;;;;;;;2.43;1.90;;;;;24.40;101110.00;;;;2078527;28;20213;-49
2022/07/02 00:26:09;;;;;;;2.37;1.77;;;;;24.40;101109.00;;;;2078579;28;20729;-49
2022/07/02 00:27:14;;;;;;;2.22;1.70;;;;;24.40;101104.00;;;;2077500;28;20221;-50
2022/07/02 00:28:15;;;;;;;2.00;1.77;;;;;24.40;101106.00;;;;2069656;28;20300;-49
2022/07/02 00:29:31;;;;;;;3.03;1.90;;;;;24.40;101109.00;;;;2077881;28;20940;-50
2022/07/02 00:30:32;;;;;;;2.80;2.10;;;;;24.40;101111.00;;;;2077778;28;20217;-49
2022/07/02 00:31:34;;;;;;;2.95;1.60;;;;;24.40;101115.00;;;;2077828;28;20244;-50
2022/07/02 00:32:35;;;;;;;1.95;1.60;;;;;24.40;101125.00;;;;2077648;28;20213;-49
2022/07/02 00:33:36;;;;;;;2.22;1.80;;;;;24.40;101107.00;;;;2077820;28;20592;-49
2022/07/02 00:34:37;;;;;;;2.30;1.80;;;;;24.40;101107.00;;;;2069636;28;20260;-49
2022/07/02 00:35:37;;;;;;;2.10;1.75;;;;;24.30;101108.00;;;;2069797;28;21171;-48
2022/07/02 00:36:37;;;;;;;2.53;1.77;;;;;24.40;101116.00;;;;2077912;28;20263;-49
2022/07/02 00:37:38;;;;;;;2.03;1.57;;;;;24.40;101115.00;;;;2068842;28;20693;-49
2022/07/02 00:38:38;;;;;;;2.27;1.90;;;;;24.40;101113.00;;;;2077568;28;20229;-55
2022/07/02 00:39:39;;;;;;;2.37;1.80;;;;;24.40;101115.00;;;;2078590;28;20217;-52
2022/07/02 00:40:39;;;;;;;1.83;1.60;;;;;24.40;101116.00;;;;2078430;28;20213;-52
2022/07/02 00:41:39;;;;;;;2.70;1.73;;;;;24.40;101123.00;;;;2075142;28;20217;-49
2022/07/02 00:42:40;;;;;;;2.97;1.80;;;;;24.30;101105.00;;;;2061389;28;20213;-49
2022/07/02 00:43:40;;;;;;;3.30;1.73;;;;;24.40;101114.00;;;;2069556;28;20214;-49
2022/07/02 00:44:40;;;;;;;1.87;1.70;;;;;24.40;101118.00;;;;2069704;28;20249;-50
2022/07/02 00:45:41;;;;;;;2.40;2.20;;;;;24.30;101117.00;;;;2053619;28;20218;-50
2022/07/02 00:46:41;;;;;;;1.90;1.60;;;;;24.40;101112.00;;;;2061310;28;20763;-49
2022/07/02 00:47:41;;;;;;;2.43;1.80;;;;;24.40;101115.00;;;;2076375;28;20706;-50
2022/07/02 00:48:42;;;;;;;2.73;2.17;;;;;24.40;101119.00;;;;2069767;28;20706;-50
2022/07/02 00:49:42;;;;;;;2.33;1.80;;;;;24.40;101126.00;;;;2069858;28;20206;-49
2022/07/02 00:50:43;;;;;;;3.57;1.67;;;;;24.40;101114.00;;;;2070424;28;20616;-50
2022/07/02 00:51:43;;;;;;;2.50;1.93;;;;;24.40;101121.00;;;;2070420;28;20703;-49
2022/07/02 00:52:43;;;;;;;3.07;2.10;;;;;24.40;101124.00;;;;2070141;28;20272;-49
2022/07/02 00:53:44;;;;;;;2.13;1.60;;;;;24.30;101119.00;;;;2069982;28;20242;-49
2022/07/02 00:54:44;;;;;;;1.90;1.60;;;;;24.30;101123.00;;;;2070059;28;20678;-49
2022/07/02 00:55:44;;;;;;;3.60;1.83;;;;;24.30;101120.00;;;;2070528;28;20574;-49
2022/07/02 00:56:46;;;;;;;2.70;1.93;;;;;24.30;101108.00;;;;2078352;28;20232;-49
2022/07/02 00:57:46;;;;;;;2.30;1.35;;;;;24.30;101115.00;;;;2077459;28;20224;-50
2022/07/02 00:58:46;;;;;;;2.67;2.00;;;;;24.30;101114.00;;;;2074941;28;20214;-50
2022/07/02 00:59:47;;;;;;;1.83;1.67;;;;;24.30;101115.00;;;;2061546;28;20215;-49
2022/07/02 01:00:48;;;;;;;2.80;1.80;;;;;24.30;101095.00;;;;2069628;28;20221;-50
2022/07/02 01:01:48;;;;;;;4.00;2.00;;;;;24.30;101105.00;;;;2061830;28;20214;-49
2022/07/02 01:02:49;;;;;;;3.03;1.93;;;;;24.30;101106.00;;;;2075754;28;20768;-49
2022/07/02 01:03:49;;;;;;;1.93;1.77;;;;;24.30;101105.00;;;;2078350;28;20259;-49
2022/07/02 01:04:50;;;;;;;2.13;1.80;;;;;24.30;101104.00;;;;2078409;28;20585;-49
2022/07/02 01:05:50;;;;;;;1.63;1.47;;;;;24.30;101090.00;;;;2077410;28;20739;-49
2022/07/02 01:06:51;;;;;;;2.83;1.60;;;;;24.30;101104.00;;;;2069581;28;20213;-49
2022/07/02 01:10:16;;;;;;;2.43;1.97;;;;;24.30;101105.00;;;;2076722;28;20363;-49
2022/07/02 01:10:31;;;;;;;2.97;1.70;;;;;24.30;101108.00;;;;2078350;28;20217;-49
2022/07/02 01:11:32;;;;;;;2.30;1.83;;;;;24.30;101109.00;;;;2078252;28;25525;-50
2022/07/02 01:12:33;;;;;;;1.80;1.60;;;;;24.30;101117.00;;;;2078561;28;20255;-49
2022/07/02 01:13:34;;;;;;;3.08;1.90;;;;;24.30;101108.00;;;;2078192;28;20216;-49
2022/07/02 01:14:34;;;;;;;3.20;1.77;;;;;24.30;101102.00;;;;2078102;28;20226;-50
2022/07/02 01:15:34;;;;;;;2.53;1.70;;;;;24.30;101100.00;;;;2069420;28;20221;-50
2022/07/02 01:16:35;;;;;;;3.10;1.70;;;;;24.30;101090.00;;;;2069323;28;20210;-49
2022/07/02 01:17:35;;;;;;;1.97;1.80;;;;;24.30;101096.00;;;;2076619;28;20240;-50
2022/07/02 01:18:38;;;;;;;3.77;1.77;;;;;24.30;101092.00;;;;2079325;28;20217;-50
2022/07/02 01:19:39;;;;;;;1.90;1.60;;;;;24.30;101095.00;;;;2079705;28;20264;-49
2022/07/02 01:20:39;;;;;;;2.53;1.90;;;;;24.30;101094.00;;;;2079356;28;20299;-49
2022/07/02 01:22:04;;;;;;;1.77;1.57;;;;;24.30;101089.00;;;;2079531;28;20217;-50
2022/07/02 01:23:05;;;;;;;2.40;1.95;;;;;24.30;101095.00;;;;2079639;28;20224;-48
2022/07/02 01:24:05;;;;;;;2.60;1.80;;;;;24.30;101092.00;;;;2079687;28;20225;-49
2022/07/02 01:25:07;;;;;;;2.40;1.43;;;;;24.30;101096.00;;;;2079309;28;20228;-49
2022/07/02 01:26:07;;;;;;;2.22;1.70;;;;;24.30;101095.00;;;;2077131;28;20243;-48
2022/07/02 01:27:07;;;;;;;2.13;1.40;;;;;24.30;101093.00;;;;2079961;28;20209;-50
2022/07/02 01:28:08;;;;;;;2.03;1.73;;;;;24.30;101092.00;;;;2079309;28;20690;-49
2022/07/02 01:29:08;;;;;;;2.50;2.07;;;;;24.30;101093.00;;;;2080135;28;20278;-49
2022/07/02 01:30:09;;;;;;;2.23;1.70;;;;;24.30;101099.00;;;;2080027;28;20263;-49
2022/07/02 01:31:09;;;;;;;2.60;1.80;;;;;24.30;101092.00;;;;2079877;28;20217;-49
2022/07/02 01:32:10;;;;;;;2.33;1.70;;;;;24.30;101094.00;;;;2070954;28;20222;-49
2022/07/02 01:33:10;;;;;;;2.27;1.90;;;;;24.30;101088.00;;;;2070928;28;20218;-48
2022/07/02 01:34:10;;;;;;;2.30;1.90;;;;;24.20;101103.00;;;;2079970;28;20224;-49
2022/07/02 01:35:11;;;;;;;1.90;1.70;;;;;24.20;101085.00;;;;2079950;28;20209;-49
2022/07/02 01:36:11;;;;;;;1.70;1.60;;;;;24.20;101100.00;;;;2073212;28;20234;-49
2022/07/02 01:37:13;;;;;;;2.03;1.77;;;;;24.30;101099.00;;;;2070951;28;20232;-49
2022/07/02 01:38:13;;;;;;;2.08;1.70;;;;;24.30;101095.00;;;;2070514;28;20222;-49
2022/07/02 01:39:13;;;;;;;2.43;1.80;;;;;24.20;101104.00;;;;2071019;28;20308;-49
2022/07/02 01:40:14;;;;;;;1.70;1.60;;;;;24.20;101103.00;;;;2071619;28;20222;-49
2022/07/02 01:42:33;;;;;;;2.30;1.83;;;;;24.20;101100.00;;;;2070991;28;20245;-48
2022/07/02 01:43:33;;;;;;;4.90;2.27;;;;;24.20;101110.00;;;;2071229;28;20582;-49
2022/07/02 01:44:34;;;;;;;2.70;1.50;;;;;24.20;101110.00;;;;2071429;28;20663;-49
2022/07/02 01:45:34;;;;;;;2.93;1.90;;;;;24.20;101107.00;;;;2071575;28;20645;-49
2022/07/02 01:46:35;;;;;;;2.57;1.97;;;;;24.20;101007.00;;;;2071524;28;20211;-49
2022/07/02 01:47:36;;;;;;;2.00;1.63;;;;;24.20;101110.00;;;;2070536;28;20241;-49
2022/07/02 01:48:36;;;;;;;1.67;1.50;;;;;24.20;101101.00;;;;2071606;28;20552;-49
2022/07/02 01:49:37;;;;;;;2.60;1.80;;;;;24.20;101147.00;;;;2071612;28;25401;-49
2022/07/02 01:50:37;;;;;;;4.13;1.63;;;;;24.20;101106.00;;;;2071256;28;20305;-49
2022/07/02 01:51:38;;;;;;;2.07;1.87;;;;;24.20;101106.00;;;;2071136;28;20245;-49
2022/07/02 01:52:38;;;;;;;1.97;1.77;;;;;24.20;101106.00;;;;2071307;28;20222;-49
2022/07/02 01:53:38;;;;;;;3.43;2.13;;;;;24.20;101103.00;;;;2073487;28;20214;-49
2022/07/02 01:54:39;;;;;;;2.63;1.70;;;;;24.20;101113.00;;;;2079334;28;20221;-49
2022/07/02 01:55:39;;;;;;;2.37;1.90;;;;;24.20;101107.00;;;;2071905;28;20218;-49
2022/07/02 01:56:39;;;;;;;1.70;1.60;;;;;24.20;101119.00;;;;2071437;28;20305;-49
2022/07/02 01:57:40;;;;;;;2.50;1.70;;;;;24.20;101100.00;;;;2070468;28;20225;-49
2022/07/02 01:58:40;;;;;;;2.20;1.80;;;;;24.20;101103.00;;;;2070820;28;20799;-49
2022/07/02 01:59:41;;;;;;;2.93;1.70;;;;;24.20;101106.00;;;;2070709;28;20222;-49
2022/07/02 02:00:41;;;;;;;2.40;2.10;;;;;24.20;101092.00;;;;2071439;28;20210;-49
2022/07/02 02:01:41;;;;;;;2.40;2.20;;;;;24.20;101111.00;;;;2071375;28;20253;-49
2022/07/02 02:02:41;;;;;;;2.13;1.60;;;;;24.20;101100.00;;;;2071317;28;20284;-49
2022/07/02 02:03:42;;;;;;;1.67;1.57;;;;;24.20;101100.00;;;;2078352;28;20224;-49
2022/07/02 02:04:42;;;;;;;2.70;1.93;;;;;24.20;101103.00;;;;2078903;28;20233;-49
2022/07/02 02:05:42;;;;;;;2.60;1.73;;;;;24.20;101106.00;;;;2073050;28;20218;-49
2022/07/02 02:06:43;;;;;;;2.13;1.60;;;;;24.20;101103.00;;;;2079708;28;20252;-49
2022/07/02 02:07:43;;;;;;;1.60;1.50;;;;;23.80;101094.00;;;;2078872;28;20237;-49
2022/07/02 02:08:43;;;;;;;2.43;1.60;;;;;24.20;101101.00;;;;2079605;28;20206;-49
2022/07/02 02:09:44;;;;;;;2.30;1.67;;;;;24.20;101104.00;;;;2079693;28;20229;-49
2022/07/02 02:10:44;;;;;;;2.20;1.80;;;;;24.20;101104.00;;;;2079730;28;20729;-49
2022/07/02 02:11:45;;;;;;;3.07;1.90;;;;;24.20;101108.00;;;;2079679;28;20228;-49
2022/07/02 02:12:45;;;;;;;2.30;1.80;;;;;24.20;101103.00;;;;2079584;28;20221;-49
2022/07/02 02:13:45;;;;;;;3.00;1.90;;;;;24.20;101092.00;;;;2079648;28;20864;-49
2022/07/02 02:14:46;;;;;;;1.70;1.47;;;;;24.20;101100.00;;;;2079664;28;20595;-49
2022/07/02 02:15:46;;;;;;;1.97;1.73;;;;;24.20;101102.00;;;;2078069;28;20352;-49
2022/07/02 02:16:46;;;;;;;2.93;1.87;;;;;24.10;101107.00;;;;2079653;28;20225;-49
2022/07/02 02:17:47;;;;;;;2.10;1.43;;;;;24.20;101101.00;;;;2066425;28;20214;-49
2022/07/02 02:18:47;;;;;;;1.90;1.70;;;;;24.20;101099.00;;;;2070681;28;20221;-49
2022/07/02 02:19:48;;;;;;;2.40;2.10;;;;;24.10;101103.00;;;;2071586;28;20225;-49
2022/07/02 02:20:48;;;;;;;2.33;2.13;;;;;24.20;101091.00;;;;2071379;28;20773;-49
2022/07/02 02:21:49;;;;;;;2.07;1.87;;;;;24.10;101104.00;;;;2071472;28;20534;-49
2022/07/02 02:22:49;;;;;;;1.70;1.40;;;;;24.20;101106.00;;;;2071433;28;20284;-48
2022/07/02 02:23:50;;;;;;;2.90;1.50;;;;;24.10;101108.00;;;;2071001;28;20222;-48
2022/07/02 02:24:50;;;;;;;2.53;1.80;;;;;24.10;101102.00;;;;2071488;28;20218;-49
2022/07/02 02:25:50;;;;;;;2.00;1.80;;;;;24.10;101101.00;;;;2071141;28;20850;-49
2022/07/02 02:26:51;;;;;;;2.20;1.97;;;;;24.10;101092.00;;;;2071452;28;20214;-49
2022/07/02 02:27:51;;;;;;;2.67;1.57;;;;;24.10;101106.00;;;;2070613;28;20617;-49
2022/07/02 02:28:52;;;;;;;2.33;1.70;;;;;24.10;101099.00;;;;2071641;28;20214;-49
2022/07/02 02:29:52;;;;;;;2.30;1.90;;;;;24.10;101101.00;;;;2069250;28;20215;-49
2022/07/02 02:30:52;;;;;;;2.37;1.80;;;;;24.10;101100.00;;;;2070588;28;20256;-49
2022/07/02 02:31:53;;;;;;;2.77;1.90;;;;;24.10;101106.00;;;;2071386;28;20218;-49
2022/07/02 02:32:53;;;;;;;2.03;1.73;;;;;24.10;101103.00;;;;2071386;28;20230;-49
2022/07/02 02:33:53;;;;;;;2.63;1.90;;;;;24.10;101109.00;;;;2071205;28;20217;-49
2022/07/02 02:34:54;;;;;;;2.83;2.03;;;;;24.10;101094.00;;;;2071424;28;20337;-49
2022/07/02 02:35:54;;;;;;;2.50;1.80;;;;;24.10;101103.00;;;;2070453;28;20598;-52
2022/07/02 02:36:54;;;;;;;2.27;1.80;;;;;24.10;101102.00;;;;2071499;28;20210;-52
2022/07/02 02:37:55;;;;;;;2.50;1.57;;;;;24.10;101104.00;;;;2070494;28;20234;-51
2022/07/02 02:38:55;;;;;;;2.43;1.83;;;;;24.10;101108.00;;;;2071097;28;20214;-50
2022/07/02 02:39:55;;;;;;;3.70;1.90;;;;;24.10;101103.00;;;;2071523;28;20215;-49
2022/07/02 02:40:56;;;;;;;2.73;2.17;;;;;24.10;101106.00;;;;2071508;28;20218;-50
2022/07/02 02:41:56;;;;;;;3.37;1.60;;;;;24.10;101110.00;;;;2071344;28;20216;-49
2022/07/02 02:42:56;;;;;;;2.83;1.80;;;;;24.10;101112.00;;;;2071427;28;20206;-48
2022/07/02 02:43:57;;;;;;;1.60;1.50;;;;;24.10;101110.00;;;;2071068;28;20248;-49
2022/07/02 02:44:57;;;;;;;2.37;1.87;;;;;24.10;101112.00;;;;2071306;28;20237;-50
2022/07/02 02:45:57;;;;;;;2.47;1.87;;;;;24.10;100998.00;;;;2074501;28;20307;-49
2022/07/02 02:46:58;;;;;;;2.10;1.60;;;;;24.10;101104.00;;;;2079177;28;20813;-49
2022/07/02 02:47:58;;;;;;;1.90;1.70;;;;;24.10;101109.00;;;;2078502;28;20710;-49
2022/07/02 02:48:58;;;;;;;2.60;1.97;;;;;23.70;101113.00;;;;2079444;28;20210;-49
2022/07/02 02:49:59;;;;;;;2.53;1.80;;;;;24.10;101107.00;;;;2079416;28;20222;-48
2022/07/02 02:50:59;;;;;;;2.73;1.80;;;;;24.10;101107.00;;;;2079309;28;20253;-49
2022/07/02 02:51:59;;;;;;;2.07;1.87;;;;;24.10;101094.00;;;;2079228;28;20235;-49
2022/07/02 02:53:00;;;;;;;1.90;1.50;;;;;24.10;101093.00;;;;2079370;28;20585;-49
2022/07/02 02:54:00;;;;;;;1.97;1.40;;;;;24.10;101101.00;;;;2078899;28;20241;-49
2022/07/02 02:55:00;;;;;;;2.63;1.70;;;;;24.10;101099.00;;;;2079064;28;20213;-49
2022/07/02 02:56:01;;;;;;;2.27;1.70;;;;;24.10;101102.00;;;;2079284;28;20212;-49
2022/07/02 02:57:01;;;;;;;3.73;1.70;;;;;24.10;101099.00;;;;2078100;28;20236;-49
2022/07/02 02:58:01;;;;;;;1.90;1.70;;;;;24.10;101109.00;;;;2070437;28;20206;-48
2022/07/02 02:59:02;;;;;;;3.13;1.97;;;;;24.10;101102.00;;;;2071243;28;20296;-49
2022/07/02 03:00:03;;;;;;;2.87;1.70;;;;;24.10;101107.00;;;;2071186;28;20297;-49
2022/07/02 03:01:04;;;;;;;1.90;1.52;;;;;24.10;101110.00;;;;2071308;28;20209;-49
2022/07/02 03:02:04;;;;;;;3.25;1.60;;;;;24.10;101108.00;;;;2071331;28;20214;-49
2022/07/02 03:03:05;;;;;;;2.23;1.70;;;;;24.10;101107.00;;;;2071320;28;20210;-48
2022/07/02 03:04:05;;;;;;;3.13;1.90;;;;;24.10;101108.00;;;;2070981;28;20318;-48
2022/07/02 03:05:06;;;;;;;1.83;1.67;;;;;24.10;101113.00;;;;2071060;28;20210;-48
2022/07/02 03:06:06;;;;;;;3.37;2.00;;;;;24.00;101117.00;;;;2070722;28;20298;-49
2022/07/02 03:07:06;;;;;;;2.07;1.83;;;;;24.10;101096.00;;;;2071012;28;20206;-48
2022/07/02 03:08:07;;;;;;;2.90;1.60;;;;;24.10;101109.00;;;;2074081;28;20214;-49
2022/07/02 03:09:07;;;;;;;1.90;1.73;;;;;24.10;101117.00;;;;2079262;28;20295;-50
2022/07/02 03:10:08;;;;;;;1.53;1.43;;;;;23.40;101118.00;;;;2079482;28;20209;-49
2022/07/02 03:11:08;;;;;;;1.93;1.57;;;;;24.10;101114.00;;;;2076602;28;20215;-49
2022/07/02 03:12:09;;;;;;;1.53;1.40;;;;;24.10;101110.00;;;;2078254;28;20324;-49
2022/07/02 03:13:09;;;;;;;2.95;1.90;;;;;24.10;101117.00;;;;2079281;28;20206;-50
2022/07/02 03:14:10;;;;;;;2.10;1.90;;;;;24.10;101018.00;;;;2078995;28;20249;-49
2022/07/02 03:15:10;;;;;;;2.33;1.80;;;;;24.00;101121.00;;;;2079086;28;20248;-49
2022/07/02 03:16:10;;;;;;;2.73;1.70;;;;;24.00;101123.00;;;;2079301;28;20580;-49
2022/07/02 03:17:11;;;;;;;1.67;1.47;;;;;24.00;101120.00;;;;2078899;28;20237;-49
2022/07/02 03:18:11;;;;;;;2.10;1.90;;;;;24.00;101123.00;;;;2078330;28;20231;-49
2022/07/02 03:19:11;;;;;;;2.70;1.70;;;;;24.00;101115.00;;;;2078812;28;20210;-49
2022/07/02 03:20:12;;;;;;;2.33;1.67;;;;;24.00;101117.00;;;;2076607;28;20344;-49
2022/07/02 03:21:12;;;;;;;2.17;1.77;;;;;24.00;101111.00;;;;2079216;28;20336;-49
2022/07/02 03:22:12;;;;;;;2.13;1.80;;;;;24.00;101117.00;;;;2079108;28;20213;-49
2022/07/02 03:23:13;;;;;;;2.00;1.77;;;;;24.00;101110.00;;;;2079101;28;20267;-49
2022/07/02 03:24:13;;;;;;;2.07;1.67;;;;;24.00;101115.00;;;;2078271;28;20206;-49
2022/07/02 03:25:14;;;;;;;2.40;1.93;;;;;24.00;101115.00;;;;2078428;28;20214;-49
2022/07/02 03:26:14;;;;;;;2.10;1.50;;;;;24.00;101111.00;;;;2079124;28;20248;-49
2022/07/02 03:27:14;;;;;;;4.03;1.83;;;;;24.00;101113.00;;;;2078574;28;20213;-49
2022/07/02 03:28:15;;;;;;;3.30;2.30;;;;;24.00;101123.00;;;;2078557;28;20201;-49
2022/07/02 03:29:15;;;;;;;2.40;1.70;;;;;24.00;101123.00;;;;2079222;28;20202;-49
2022/07/02 03:30:15;;;;;;;2.13;1.50;;;;;24.00;101120.00;;;;2078996;28;20205;-49
2022/07/02 03:31:16;;;;;;;1.97;1.70;;;;;24.00;101115.00;;;;2078946;28;20224;-49
2022/07/02 03:32:16;;;;;;;2.20;1.60;;;;;24.00;101125.00;;;;2079149;28;20237;-49
2022/07/02 03:33:16;;;;;;;2.17;1.50;;;;;23.60;101124.00;;;;2075667;28;20293;-49
2022/07/02 03:34:17;;;;;;;2.10;1.80;;;;;24.00;101122.00;;;;2070635;28;20219;-50
2022/07/02 03:35:17;;;;;;;1.57;1.47;;;;;24.00;101157.00;;;;2070798;28;20249;-49
2022/07/02 03:36:17;;;;;;;2.27;1.80;;;;;24.00;101126.00;;;;2071019;28;20214;-49
2022/07/02 03:37:18;;;;;;;1.77;1.67;;;;;23.70;101127.00;;;;2070349;28;20215;-49
2022/07/02 03:38:18;;;;;;;1.77;1.63;;;;;24.00;101120.00;;;;2070437;28;20210;-49
2022/07/02 03:39:19;;;;;;;3.93;1.77;;;;;24.00;101117.00;;;;2070733;28;20627;-49
2022/07/02 03:40:19;;;;;;;1.97;1.83;;;;;24.00;101123.00;;;;2070881;28;20222;-48
2022/07/02 03:41:19;;;;;;;1.50;1.40;;;;;24.00;101127.00;;;;2070378;28;20218;-49
2022/07/02 03:42:20;;;;;;;1.50;1.40;;;;;24.00;101134.00;;;;2070793;28;20257;-49
2022/07/02 03:43:20;;;;;;;5.23;1.67;;;;;24.00;101126.00;;;;2075663;28;20289;-49
2022/07/02 03:44:21;;;;;;;1.60;1.50;;;;;24.00;101122.00;;;;2078932;28;20567;-49
2022/07/02 03:45:21;;;;;;;3.47;1.77;;;;;24.00;101121.00;;;;2078901;28;20309;-50
2022/07/02 03:46:21;;;;;;;1.83;1.50;;;;;24.00;101117.00;;;;2079059;28;20209;-49
2022/07/02 03:47:22;;;;;;;1.57;1.47;;;;;24.00;101118.00;;;;2078072;28;20213;-49
2022/07/02 03:48:22;;;;;;;1.70;1.60;;;;;24.00;101123.00;;;;2078894;28;20220;-49
2022/07/02 03:49:22;;;;;;;1.93;1.40;;;;;24.00;101127.00;;;;2078382;28;20686;-49
2022/07/02 03:50:23;;;;;;;1.70;1.53;;;;;24.00;101121.00;;;;2075733;28;20705;-49
2022/07/02 03:51:23;;;;;;;1.90;1.40;;;;;24.00;101122.00;;;;2070683;28;20214;-49
2022/07/02 03:52:23;;;;;;;1.97;1.77;;;;;24.00;101119.00;;;;2070411;28;20237;-49
2022/07/02 03:53:24;;;;;;;2.20;1.63;;;;;23.90;101123.00;;;;2070554;28;20232;-49
2022/07/02 03:54:24;;;;;;;2.20;1.70;;;;;23.90;101122.00;;;;2070472;28;20230;-49
2022/07/02 03:55:24;;;;;;;3.00;1.87;;;;;23.90;101117.00;;;;2070720;28;20222;-49
2022/07/02 03:56:25;;;;;;;2.83;1.93;;;;;24.00;101119.00;;;;2070714;28;20233;-49
2022/07/02 03:57:25;;;;;;;2.73;1.50;;;;;24.00;101118.00;;;;2069652;28;20305;-49
2022/07/02 03:58:25;;;;;;;1.77;1.50;;;;;24.00;101115.00;;;;2070774;28;20226;-49
2022/07/02 03:59:26;;;;;;;3.93;2.30;;;;;23.90;101121.00;;;;2074548;28;20732;-49
2022/07/02 04:00:26;;;;;;;3.60;1.90;;;;;23.90;101123.00;;;;2074414;28;20242;-49
2022/07/02 04:01:26;;;;;;;2.83;1.73;;;;;23.90;101123.00;;;;2070616;28;20265;-49
2022/07/02 04:02:27;;;;;;;2.17;1.87;;;;;24.00;101130.00;;;;2070869;28;20336;-49
2022/07/02 04:03:27;;;;;;;1.60;1.50;;;;;23.90;101126.00;;;;2070569;28;20237;-49
2022/07/02 04:04:27;;;;;;;2.30;1.73;;;;;24.00;101119.00;;;;2070388;28;20680;-49
2022/07/02 04:05:28;;;;;;;1.90;1.70;;;;;23.90;101126.00;;;;2070647;28;20678;-50
2022/07/02 04:06:28;;;;;;;3.13;1.50;;;;;23.90;101122.00;;;;2070733;28;20272;-49
2022/07/02 04:07:29;;;;;;;1.40;1.30;;;;;23.90;101127.00;;;;2069799;28;20222;-49
2022/07/02 04:08:29;;;;;;;1.90;1.30;;;;;23.90;101130.00;;;;2070718;28;20210;-49
2022/07/02 04:09:29;;;;;;;4.33;1.80;;;;;24.00;101125.00;;;;2070040;28;20684;-49
2022/07/02 04:10:29;;;;;;;2.17;1.70;;;;;24.00;101129.00;;;;2070123;28;20323;-49
2022/07/02 04:11:30;;;;;;;1.63;1.53;;;;;24.00;101131.00;;;;2070394;28;20217;-49
2022/07/02 04:12:30;;;;;;;2.40;1.87;;;;;23.90;101128.00;;;;2070716;28;20221;-49
2022/07/02 04:13:30;;;;;;;3.00;1.43;;;;;23.90;101129.00;;;;2070546;28;20288;-49
2022/07/02 04:14:31;;;;;;;1.80;1.70;;;;;23.90;101124.00;;;;2070424;28;20222;-49
2022/07/02 04:15:31;;;;;;;2.33;1.87;;;;;23.90;101137.00;;;;2076190;28;20217;-49
2022/07/02 04:16:31;;;;;;;1.70;1.50;;;;;23.90;101132.00;;;;2078846;28;20217;-49
2022/07/02 04:17:32;;;;;;;2.10;1.80;;;;;23.90;101136.00;;;;2071342;28;20225;-49
2022/07/02 04:18:32;;;;;;;2.27;1.57;;;;;23.90;101137.00;;;;2073700;28;20725;-49
2022/07/02 04:19:32;;;;;;;1.80;1.40;;;;;23.90;101132.00;;;;2070591;28;20666;-49
2022/07/02 04:20:33;;;;;;;2.47;1.50;;;;;23.90;101126.00;;;;2070786;28;20892;-49
2022/07/02 04:21:33;;;;;;;2.03;1.70;;;;;23.90;101129.00;;;;2070344;28;20214;-49
2022/07/02 04:22:33;;;;;;;1.83;1.60;;;;;23.90;101129.00;;;;2070751;28;20737;-49
2022/07/02 04:23:34;;;;;;;2.67;1.77;;;;;23.90;101125.00;;;;2070498;28;20229;-49
2022/07/02 04:24:34;;;;;;;1.93;1.70;;;;;23.90;101129.00;;;;2070167;28;20219;-49
2022/07/02 04:25:34;;;;;;;2.63;1.90;;;;;23.90;101125.00;;;;2070812;28;20241;-49
2022/07/02 04:26:35;;;;;;;1.70;1.60;;;;;23.90;101125.00;;;;2078776;28;20220;-49
2022/07/02 04:27:35;;;;;;;2.50;1.73;;;;;23.90;101127.00;;;;2077092;28;20233;-49
2022/07/02 04:28:35;;;;;;;2.10;1.70;;;;;23.90;101119.00;;;;2078239;28;20213;-49
2022/07/02 04:29:36;;;;;;;1.80;1.50;;;;;23.90;101130.00;;;;2078621;28;20240;-49
2022/07/02 04:30:36;;;;;;;2.13;1.93;;;;;23.90;101127.00;;;;2076888;28;20233;-49
2022/07/02 04:31:37;;;;;;;2.63;1.60;;;;;23.90;101126.00;;;;2078760;28;20224;-49
2022/07/02 04:32:37;;;;;;;1.90;1.43;;;;;23.90;101124.00;;;;2077713;28;20973;-49
2022/07/02 04:33:37;;;;;;;1.90;1.70;;;;;23.90;101127.00;;;;2077379;28;20221;-49
2022/07/02 04:34:38;;;;;;;3.67;2.17;;;;;23.90;101118.00;;;;2077010;28;20316;-49
2022/07/02 04:35:38;;;;;;;2.37;1.70;;;;;23.90;101129.00;;;;2078150;28;20211;-49
2022/07/02 04:36:39;;;;;;;1.60;1.50;;;;;23.90;101131.00;;;;2078462;28;20270;-49
2022/07/02 04:37:40;;;;;;;2.10;1.80;;;;;23.90;101122.00;;;;2077705;28;20312;-49
2022/07/02 04:38:40;;;;;;;3.35;1.58;;;;;24.00;101127.00;;;;2077453;28;20209;-49
2022/07/02 04:39:41;;;;;;;2.07;1.60;;;;;23.90;101125.00;;;;2069791;28;20230;-49
2022/07/02 04:40:41;;;;;;;3.13;1.57;;;;;23.90;101133.00;;;;2069912;28;20216;-49
2022/07/02 04:41:41;;;;;;;2.40;1.53;;;;;23.90;101133.00;;;;2069491;28;20214;-53
2022/07/02 04:42:42;;;;;;;1.40;1.30;;;;;23.90;101129.00;;;;2070187;28;20210;-53
2022/07/02 04:43:42;;;;;;;2.80;1.70;;;;;23.90;101130.00;;;;2070224;28;20222;-51
2022/07/02 04:44:42;;;;;;;2.10;1.50;;;;;23.90;101138.00;;;;2068698;28;20260;-53
2022/07/02 04:45:43;;;;;;;2.17;1.70;;;;;24.00;101130.00;;;;2069614;28;20214;-52
2022/07/02 04:46:43;;;;;;;2.40;1.47;;;;;23.90;101145.00;;;;2070093;28;20210;-50
2022/07/02 04:47:43;;;;;;;2.20;1.60;;;;;23.90;101133.00;;;;2069375;28;20313;-49
2022/07/02 04:48:44;;;;;;;2.00;1.67;;;;;23.90;101131.00;;;;2069906;28;20206;-50
2022/07/02 04:49:44;;;;;;;2.40;1.20;;;;;23.90;101137.00;;;;2070644;28;20217;-50
2022/07/02 04:50:44;;;;;;;4.13;1.87;;;;;23.90;101125.00;;;;2070493;28;20710;-50
2022/07/02 04:51:45;;;;;;;2.00;1.80;;;;;23.90;101130.00;;;;2070175;28;20628;-49
2022/07/02 04:52:48;;;;;;;2.40;1.50;;;;;24.00;101126.00;;;;2069777;28;20680;-49
2022/07/02 04:53:48;;;;;;;2.22;1.52;;;;;23.90;101124.00;;;;2064365;28;20301;-49
2022/07/02 04:54:49;;;;;;;1.60;1.50;;;;;23.90;101125.00;;;;2084564;28;20228;-49
2022/07/02 04:55:50;;;;;;;1.60;1.30;;;;;23.90;101134.00;;;;2080900;28;20587;-50
2022/07/02 04:56:50;;;;;;;2.00;1.77;;;;;23.90;101120.00;;;;2077795;28;20452;-49
2022/07/02 04:57:51;;;;;;;1.83;1.37;;;;;23.90;101127.00;;;;2077137;28;20328;-49
2022/07/02 04:58:51;;;;;;;1.70;1.60;;;;;24.00;101122.00;;;;2077699;28;20251;-49
2022/07/02 04:59:51;;;;;;;1.87;1.70;;;;;23.90;101113.00;;;;2078553;28;20499;-50
2022/07/02 05:00:52;;;;;;;2.77;1.70;;;;;23.90;101130.00;;;;2078516;28;20688;-49
2022/07/02 05:01:52;;;;;;;2.00;1.77;;;;;24.00;101129.00;;;;2078487;28;20689;-49
2022/07/02 05:02:52;;;;;;;2.57;2.00;;;;;23.90;101120.00;;;;2076795;28;20228;-49